createdAt,value
2022-11-30T00:00:23.674Z,17.63
2022-11-30T00:02:53.876Z,18.15
2022-11-30T00:05:22.406Z,17.13
2022-11-30T00:07:49.941Z,17.27
2022-11-30T00:10:17.799Z,16.67
2022-11-30T00:12:44.911Z,18.45
2022-11-30T00:15:14.105Z,18.80
2022-11-30T00:17:41.471Z,17.35
2022-11-30T00:20:09.059Z,17.75
2022-11-30T00:22:36.546Z,16.73
2022-11-30T00:25:04.697Z,17.08
2022-11-30T00:27:32.211Z,17.60
2022-11-30T00:29:59.607Z,17.83
2022-11-30T00:32:27.452Z,18.27
2022-11-30T00:34:54.681Z,17.30
2022-11-30T00:37:22.235Z,19.27
2022-11-30T00:39:49.414Z,17.45
2022-11-30T00:42:16.548Z,18.27
2022-11-30T00:44:43.819Z,20.17
2022-11-30T00:47:11.095Z,20.17
2022-11-30T00:49:38.333Z,20.20
2022-11-30T00:52:05.507Z,18.85
2022-11-30T00:54:32.659Z,19.48
2022-11-30T00:56:59.811Z,18.75
2022-11-30T00:59:26.924Z,21.02
2022-11-30T01:01:55.462Z,21.00
2022-11-30T01:04:22.658Z,19.90
2022-11-30T01:06:50.605Z,19.60
2022-11-30T01:09:17.722Z,18.58
2022-11-30T01:11:44.858Z,19.02
2022-11-30T01:14:11.966Z,19.55
2022-11-30T01:16:39.156Z,19.02
2022-11-30T01:19:06.367Z,19.98
2022-11-30T01:21:33.589Z,19.30
2022-11-30T01:24:00.779Z,20.42
2022-11-30T01:26:28.027Z,19.77
2022-11-30T01:28:56.155Z,19.77
2022-11-30T01:31:24.591Z,20.35
2022-11-30T01:33:52.863Z,20.05
2022-11-30T01:36:21.165Z,19.23
2022-11-30T01:38:52.714Z,18.95
2022-11-30T01:41:21.933Z,21.00
2022-11-30T01:43:50.942Z,19.95
2022-11-30T01:46:23.140Z,20.70
2022-11-30T01:48:55.250Z,21.02
2022-11-30T01:51:22.624Z,21.25
2022-11-30T01:53:49.810Z,22.75
2022-11-30T01:56:18.123Z,22.80
2022-11-30T01:58:45.263Z,24.92
2022-11-30T02:01:12.516Z,22.23
2022-11-30T02:03:47.437Z,22.08
2022-11-30T02:08:41.893Z,22.90
2022-11-30T02:11:12.799Z,23.92
2022-11-30T02:13:58.271Z,22.95
2022-11-30T02:16:25.428Z,23.75
2022-11-30T02:18:55.660Z,22.42
2022-11-30T02:21:30.051Z,23.35
2022-11-30T02:24:12.179Z,22.40
2022-11-30T02:26:51.980Z,22.33
2022-11-30T02:29:22.108Z,23.58
2022-11-30T02:31:52.191Z,22.63
2022-11-30T02:34:21.949Z,23.20
2022-11-30T02:36:49.261Z,22.42
2022-11-30T02:39:17.202Z,22.10
2022-11-30T02:41:44.315Z,19.38
2022-11-30T02:44:12.171Z,19.05
2022-11-30T02:46:42.333Z,19.67
2022-11-30T02:49:17.871Z,18.77
2022-11-30T02:51:46.109Z,18.73
2022-11-30T02:54:13.353Z,17.13
2022-11-30T02:56:40.526Z,17.40
2022-11-30T02:59:07.742Z,16.95
2022-11-30T03:01:34.924Z,16.67
2022-11-30T03:04:02.097Z,15.77
2022-11-30T03:06:29.236Z,16.15
2022-11-30T03:08:56.450Z,16.83
2022-11-30T03:11:23.608Z,16.38
2022-11-30T03:13:50.773Z,18.08
2022-11-30T03:16:18.164Z,18.23
2022-11-30T03:18:45.323Z,18.58
2022-11-30T03:21:13.282Z,18.00
2022-11-30T03:23:40.927Z,19.58
2022-11-30T03:26:08.874Z,20.25
2022-11-30T03:28:36.581Z,19.65
2022-11-30T03:31:04.080Z,18.55
2022-11-30T03:33:31.464Z,20.00
2022-11-30T03:36:00.197Z,19.73
2022-11-30T03:38:27.416Z,18.85
2022-11-30T03:41:08.719Z,18.25
2022-11-30T03:43:36.158Z,17.83
2022-11-30T03:46:03.910Z,17.63
2022-11-30T03:48:31.574Z,18.73
2022-11-30T03:50:59.048Z,18.67
2022-11-30T03:53:26.220Z,18.45
2022-11-30T03:55:54.775Z,19.48
2022-11-30T03:58:22.679Z,18.33
2022-11-30T04:00:49.849Z,19.58
2022-11-30T04:03:17.132Z,18.27
2022-11-30T04:05:44.389Z,20.05
2022-11-30T04:08:11.513Z,19.45
2022-11-30T04:10:38.878Z,18.67
2022-11-30T04:13:06.045Z,19.33
2022-11-30T04:15:33.149Z,18.02
2022-11-30T04:18:00.309Z,18.95
2022-11-30T04:20:27.414Z,20.05
2022-11-30T04:22:54.608Z,18.38
2022-11-30T04:25:21.729Z,18.45
2022-11-30T04:27:48.906Z,18.88
2022-11-30T04:30:16.564Z,18.42
2022-11-30T04:32:43.690Z,20.08
2022-11-30T04:35:11.504Z,18.45
2022-11-30T04:37:38.737Z,19.63
2022-11-30T04:40:06.734Z,19.35
2022-11-30T04:42:34.008Z,19.15
2022-11-30T04:45:01.193Z,19.60
2022-11-30T04:47:28.308Z,17.60
2022-11-30T04:49:55.429Z,17.92
2022-11-30T04:52:22.532Z,19.00
2022-11-30T04:54:49.943Z,20.10
2022-11-30T04:57:17.170Z,18.90
2022-11-30T04:59:44.339Z,18.05
2022-11-30T05:02:11.485Z,19.15
2022-11-30T05:04:38.712Z,18.80
2022-11-30T05:07:06.106Z,18.95
2022-11-30T05:09:33.606Z,18.85
2022-11-30T05:12:00.790Z,19.00
2022-11-30T05:14:28.014Z,17.65
2022-11-30T05:16:55.129Z,18.75
2022-11-30T05:19:22.225Z,17.63
2022-11-30T05:21:49.437Z,17.55
2022-11-30T05:24:16.613Z,17.70
2022-11-30T05:26:43.776Z,17.85
2022-11-30T05:29:10.910Z,18.20
2022-11-30T05:31:39.604Z,17.92
2022-11-30T05:34:06.776Z,16.88
2022-11-30T05:36:33.874Z,17.30
2022-11-30T05:39:00.985Z,17.52
2022-11-30T05:41:28.115Z,18.02
2022-11-30T05:43:55.369Z,16.58
2022-11-30T05:46:22.582Z,16.77
2022-11-30T05:48:49.880Z,16.88
2022-11-30T05:51:18.110Z,15.57
2022-11-30T05:53:45.798Z,15.70
2022-11-30T05:56:14.377Z,17.05
2022-11-30T05:58:41.663Z,14.93
2022-11-30T06:01:09.323Z,15.07
2022-11-30T06:03:36.746Z,15.75
2022-11-30T06:06:03.914Z,15.48
2022-11-30T06:08:31.069Z,15.48
2022-11-30T06:11:00.623Z,15.57
2022-11-30T06:13:29.028Z,14.48
2022-11-30T06:15:59.106Z,15.60
2022-11-30T06:18:26.297Z,16.50
2022-11-30T06:20:53.435Z,16.08
2022-11-30T06:23:20.575Z,15.30
2022-11-30T06:25:47.701Z,15.15
2022-11-30T06:28:14.807Z,16.00
2022-11-30T06:30:41.948Z,16.00
2022-11-30T06:33:09.078Z,15.75
2022-11-30T06:35:36.251Z,15.43
2022-11-30T06:38:03.406Z,16.13
2022-11-30T06:40:30.976Z,14.95
2022-11-30T06:42:58.121Z,13.82
2022-11-30T06:45:25.402Z,14.15
2022-11-30T06:47:55.607Z,14.57
2022-11-30T06:50:22.787Z,15.07
2022-11-30T06:52:49.894Z,14.20
2022-11-30T06:55:17.095Z,15.85
2022-11-30T06:57:44.218Z,15.60
2022-11-30T07:00:12.616Z,15.10
2022-11-30T07:02:39.752Z,14.27
2022-11-30T07:05:07.078Z,13.85
2022-11-30T07:07:34.384Z,15.00
2022-11-30T07:10:01.888Z,14.32
2022-11-30T07:12:29.017Z,14.32
2022-11-30T07:14:56.142Z,14.05
2022-11-30T07:17:23.317Z,14.32
2022-11-30T07:19:50.435Z,15.50
2022-11-30T07:22:17.600Z,15.27
2022-11-30T07:25:03.524Z,16.50
2022-11-30T07:27:30.645Z,15.68
2022-11-30T07:29:57.773Z,15.57
2022-11-30T07:32:24.976Z,16.92
2022-11-30T07:34:52.089Z,16.45
2022-11-30T07:37:19.236Z,16.40
2022-11-30T07:39:46.376Z,17.65
2022-11-30T07:42:13.507Z,17.60
2022-11-30T07:44:41.405Z,16.98
2022-11-30T07:47:08.619Z,17.00
2022-11-30T07:49:35.915Z,17.83
2022-11-30T07:52:04.578Z,17.17
2022-11-30T07:54:31.747Z,16.92
2022-11-30T07:56:58.874Z,17.25
2022-11-30T07:59:26.391Z,15.90
2022-11-30T08:01:53.588Z,17.48
2022-11-30T08:04:20.853Z,18.08
2022-11-30T08:06:48.030Z,16.88
2022-11-30T08:09:20.355Z,17.48
2022-11-30T08:11:49.708Z,17.58
2022-11-30T08:14:16.975Z,16.60
2022-11-30T08:16:44.574Z,16.70
2022-11-30T08:19:11.768Z,16.13
2022-11-30T08:21:38.967Z,17.17
2022-11-30T08:24:06.265Z,16.90
2022-11-30T08:26:34.607Z,16.10
2022-11-30T08:29:02.159Z,17.27
2022-11-30T08:31:31.305Z,16.13
2022-11-30T08:33:59.735Z,16.77
2022-11-30T08:36:27.608Z,16.95
2022-11-30T08:38:55.062Z,16.75
2022-11-30T08:41:23.140Z,16.70
2022-11-30T08:43:50.881Z,16.52
2022-11-30T08:49:20.972Z,15.82
2022-11-30T08:52:16.886Z,15.75
2022-11-30T08:54:42.847Z,16.13
2022-11-30T08:57:10.119Z,15.35
2022-11-30T08:59:37.400Z,15.55
2022-11-30T09:02:04.578Z,13.93
2022-11-30T09:04:31.676Z,15.35
2022-11-30T09:06:59.551Z,15.10
2022-11-30T09:09:26.808Z,14.90
2022-11-30T09:11:53.897Z,13.95
2022-11-30T09:14:21.296Z,15.30
2022-11-30T09:16:48.455Z,13.65
2022-11-30T09:19:15.637Z,15.20
2022-11-30T09:21:49.637Z,14.20
2022-11-30T09:24:18.668Z,14.57
2022-11-30T09:26:45.803Z,14.93
2022-11-30T09:29:12.995Z,14.10
2022-11-30T09:31:40.155Z,15.18
2022-11-30T09:34:07.287Z,14.40
2022-11-30T09:36:36.548Z,14.25
2022-11-30T09:39:03.680Z,14.43
2022-11-30T09:41:45.921Z,14.23
2022-11-30T09:44:31.791Z,14.57
2022-11-30T09:46:59.265Z,14.27
2022-11-30T09:49:29.704Z,14.60
2022-11-30T09:51:59.539Z,14.05
2022-11-30T09:54:35.642Z,13.90
2022-11-30T09:57:26.012Z,13.88
2022-11-30T09:59:57.692Z,14.13
2022-11-30T10:02:28.759Z,13.55
2022-11-30T10:04:56.565Z,14.52
2022-11-30T10:07:42.767Z,12.95
2022-11-30T10:10:37.456Z,12.82
2022-11-30T10:13:07.769Z,12.77
2022-11-30T10:15:40.744Z,14.60
2022-11-30T10:18:17.064Z,12.93
2022-11-30T10:21:03.411Z,11.50
2022-11-30T10:23:42.642Z,12.80
2022-11-30T10:26:12.453Z,13.32
2022-11-30T10:28:48.126Z,13.65
2022-11-30T10:31:16.333Z,13.65
2022-11-30T10:33:51.004Z,13.45
2022-11-30T10:36:24.073Z,12.48
2022-11-30T10:38:53.525Z,12.68
2022-11-30T10:41:28.026Z,12.88
2022-11-30T10:44:01.193Z,13.60
2022-11-30T10:46:36.935Z,13.15
2022-11-30T10:49:08.888Z,12.75
2022-11-30T10:51:37.556Z,13.20
2022-11-30T10:54:12.645Z,13.18
2022-11-30T10:56:39.764Z,12.65
2022-11-30T10:59:12.982Z,12.20
2022-11-30T11:01:41.464Z,12.90
2022-11-30T11:04:19.317Z,12.27
2022-11-30T11:06:47.983Z,11.82
2022-11-30T11:09:24.432Z,11.80
2022-11-30T11:11:55.454Z,10.80
2022-11-30T11:14:24.126Z,12.07
2022-11-30T11:16:56.202Z,11.85
2022-11-30T11:19:33.787Z,11.40
2022-11-30T11:22:02.714Z,11.82
2022-11-30T11:24:30.021Z,11.00
2022-11-30T11:26:57.759Z,11.90
2022-11-30T11:29:32.833Z,13.57
2022-11-30T11:32:19.043Z,12.75
2022-11-30T11:34:50.839Z,13.07
2022-11-30T11:37:22.989Z,12.85
2022-11-30T11:39:56.054Z,13.27
2022-11-30T11:42:23.351Z,14.13
2022-11-30T11:44:51.708Z,14.80
2022-11-30T11:47:24.506Z,15.00
2022-11-30T11:49:51.782Z,15.18
2022-11-30T11:52:18.991Z,13.73
2022-11-30T11:54:46.127Z,14.95
2022-11-30T11:57:15.296Z,13.75
2022-11-30T11:59:45.524Z,13.98
2022-11-30T12:02:31.537Z,13.98
2022-11-30T12:05:01.985Z,14.60
2022-11-30T12:07:32.888Z,13.48
2022-11-30T12:10:43.674Z,14.13
2022-11-30T12:13:02.296Z,14.63
2022-11-30T12:15:33.031Z,12.52
2022-11-30T12:18:00.158Z,13.18
2022-11-30T12:20:36.460Z,14.68
2022-11-30T12:23:06.996Z,12.73
2022-11-30T12:25:52.871Z,13.02
2022-11-30T12:28:24.075Z,14.07
2022-11-30T12:30:51.204Z,12.85
2022-11-30T12:33:34.550Z,13.35
2022-11-30T12:36:19.178Z,14.25
2022-11-30T12:38:46.257Z,12.77
2022-11-30T12:41:22.615Z,13.07
2022-11-30T12:43:55.929Z,12.55
2022-11-30T12:46:41.093Z,13.05
2022-11-30T12:49:17.642Z,12.68
2022-11-30T12:51:51.162Z,12.35
2022-11-30T12:54:26.770Z,12.27
2022-11-30T12:57:01.329Z,11.77
2022-11-30T12:59:34.791Z,10.88
2022-11-30T13:02:01.958Z,12.18
2022-11-30T13:04:31.543Z,10.82
2022-11-30T13:07:00.935Z,10.55
2022-11-30T13:09:34.236Z,10.95
2022-11-30T13:12:17.473Z,10.93
2022-11-30T13:14:45.124Z,11.80
2022-11-30T13:17:19.845Z,11.30
2022-11-30T13:19:56.377Z,10.90
2022-11-30T13:22:25.888Z,10.10
2022-11-30T13:24:58.350Z,11.20
2022-11-30T13:27:30.165Z,10.23
2022-11-30T13:30:03.038Z,11.30
2022-11-30T13:35:29.489Z,11.73
2022-11-30T13:38:34.532Z,11.77
2022-11-30T13:40:56.729Z,11.77
2022-11-30T13:43:24.568Z,13.05
2022-11-30T13:46:02.957Z,12.15
2022-11-30T13:48:40.671Z,11.32
2022-11-30T13:51:08.454Z,12.02
2022-11-30T13:53:37.300Z,11.75
2022-11-30T13:56:07.918Z,12.80
2022-11-30T13:58:35.848Z,12.50
2022-11-30T14:01:05.451Z,12.52
2022-11-30T14:08:45.012Z,14.38
2022-11-30T14:11:18.093Z,13.52
2022-11-30T14:13:45.629Z,14.02
2022-11-30T14:16:23.872Z,14.00
2022-11-30T14:18:51.567Z,12.73
2022-11-30T14:21:22.362Z,13.85
2022-11-30T14:23:53.167Z,13.52
2022-11-30T14:26:26.082Z,13.30
2022-11-30T14:29:03.504Z,14.38
2022-11-30T14:31:50.018Z,14.65
2022-11-30T14:34:27.316Z,14.55
2022-11-30T14:36:57.138Z,15.90
2022-11-30T14:39:37.544Z,15.05
2022-11-30T14:42:06.628Z,16.05
2022-11-30T14:44:39.879Z,16.52
2022-11-30T14:47:13.852Z,14.85
2022-11-30T14:49:46.974Z,16.20
2022-11-30T14:52:16.300Z,15.98
2022-11-30T14:54:48.085Z,16.83
2022-11-30T14:57:18.916Z,16.17
2022-11-30T14:59:55.746Z,16.30
2022-11-30T15:02:22.915Z,16.52
2022-11-30T15:04:50.960Z,15.85
2022-11-30T15:07:18.959Z,15.98
2022-11-30T15:09:48.035Z,16.10
2022-11-30T15:12:20.589Z,15.38
2022-11-30T15:15:03.741Z,15.65
2022-11-30T15:17:31.060Z,16.15
2022-11-30T15:19:58.213Z,15.40
2022-11-30T15:22:25.392Z,15.52
2022-11-30T15:24:52.577Z,15.73
2022-11-30T15:27:21.966Z,15.75
2022-11-30T15:30:01.754Z,15.43
2022-11-30T15:32:29.515Z,15.80
2022-11-30T15:34:58.015Z,14.23
2022-11-30T15:37:32.123Z,15.63
2022-11-30T15:40:00.584Z,14.65
2022-11-30T15:42:39.626Z,16.25
2022-11-30T15:45:26.694Z,15.70
2022-11-30T15:47:54.631Z,14.63
2022-11-30T15:50:30.747Z,14.63
2022-11-30T15:53:02.675Z,13.82
2022-11-30T15:55:42.999Z,14.18
2022-11-30T15:58:29.067Z,15.02
2022-11-30T16:01:06.294Z,14.65
2022-11-30T16:03:34.557Z,14.40
2022-11-30T16:06:04.894Z,15.50
2022-11-30T16:08:32.552Z,14.57
2022-11-30T16:11:03.210Z,15.68
2022-11-30T16:13:34.807Z,14.15
2022-11-30T16:16:01.962Z,14.98
2022-11-30T16:18:29.251Z,15.00
2022-11-30T16:21:00.385Z,14.35
2022-11-30T16:23:27.949Z,15.57
2022-11-30T16:25:55.392Z,15.73
2022-11-30T16:28:23.240Z,15.05
2022-11-30T16:30:50.713Z,14.68
2022-11-30T16:33:30.884Z,15.57
2022-11-30T16:36:01.157Z,16.23
2022-11-30T16:38:29.018Z,14.95
2022-11-30T16:40:56.713Z,15.27
2022-11-30T16:43:26.170Z,14.57
2022-11-30T16:45:53.432Z,14.75
2022-11-30T16:48:20.563Z,14.98
2022-11-30T16:50:47.755Z,15.57
2022-11-30T16:53:15.139Z,15.32
2022-11-30T16:55:42.510Z,15.50
2022-11-30T16:58:09.714Z,15.43
2022-11-30T17:00:38.759Z,15.57
2022-11-30T17:03:10.478Z,15.30
2022-11-30T17:05:37.737Z,16.08
2022-11-30T17:08:05.056Z,14.85
2022-11-30T17:10:32.254Z,15.35
2022-11-30T17:12:59.350Z,15.75
2022-11-30T17:15:26.519Z,15.20
2022-11-30T17:17:57.576Z,15.23
2022-11-30T17:20:24.769Z,14.88
2022-11-30T17:22:52.000Z,15.23
2022-11-30T17:25:21.055Z,15.27
2022-11-30T17:27:48.405Z,15.25
2022-11-30T17:30:16.496Z,16.02
2022-11-30T17:32:43.915Z,14.25
2022-11-30T17:35:11.235Z,15.02
2022-11-30T17:37:38.379Z,15.73
2022-11-30T17:40:07.016Z,14.50
2022-11-30T17:42:34.219Z,15.55
2022-11-30T17:45:01.340Z,14.45
2022-11-30T17:47:28.507Z,15.68
2022-11-30T17:49:56.673Z,15.55
2022-11-30T17:52:24.067Z,14.95
2022-11-30T17:54:51.310Z,13.95
2022-11-30T17:57:18.551Z,15.90
2022-11-30T17:59:45.677Z,15.05
2022-11-30T18:02:13.006Z,14.73
2022-11-30T18:04:40.198Z,15.05
2022-11-30T18:07:07.350Z,15.55
2022-11-30T18:09:39.408Z,14.75
2022-11-30T18:12:10.403Z,15.63
2022-11-30T18:14:37.524Z,17.05
2022-11-30T18:17:04.750Z,15.95
2022-11-30T18:19:31.918Z,15.80
2022-11-30T18:22:00.506Z,16.27
2022-11-30T18:24:27.636Z,14.45
2022-11-30T18:26:54.801Z,15.65
2022-11-30T18:29:22.016Z,16.85
2022-11-30T18:31:50.215Z,16.63
2022-11-30T18:34:17.767Z,15.90
2022-11-30T18:36:44.915Z,16.23
2022-11-30T18:39:12.026Z,16.27
2022-11-30T18:41:39.207Z,16.88
2022-11-30T18:44:06.422Z,15.68
2022-11-30T18:46:33.637Z,17.00
2022-11-30T18:49:01.711Z,17.17
2022-11-30T18:51:30.243Z,15.43
2022-11-30T18:54:01.382Z,16.25
2022-11-30T18:56:30.249Z,15.02
2022-11-30T18:59:01.666Z,16.45
2022-11-30T19:01:29.560Z,15.63
2022-11-30T19:03:58.120Z,16.20
2022-11-30T19:06:28.227Z,16.27
2022-11-30T19:08:55.374Z,17.00
2022-11-30T19:11:22.534Z,16.92
2022-11-30T19:13:53.576Z,18.20
2022-11-30T19:16:21.052Z,17.63
2022-11-30T19:18:48.810Z,17.02
2022-11-30T19:21:17.145Z,18.17
2022-11-30T19:23:44.338Z,18.10
2022-11-30T19:26:11.851Z,16.70
2022-11-30T19:28:39.540Z,17.10
2022-11-30T19:31:08.357Z,16.88
2022-11-30T19:33:36.579Z,18.33
2022-11-30T19:36:05.075Z,18.33
2022-11-30T19:38:32.256Z,17.25
2022-11-30T19:40:59.543Z,17.45
2022-11-30T19:43:26.722Z,19.00
2022-11-30T19:45:53.911Z,18.80
2022-11-30T19:48:21.076Z,18.80
2022-11-30T19:50:48.200Z,17.00
2022-11-30T19:53:15.308Z,18.15
2022-11-30T19:55:42.419Z,19.05
2022-11-30T19:58:09.520Z,18.77
2022-11-30T20:00:36.637Z,17.35
2022-11-30T20:03:09.535Z,17.95
2022-11-30T20:05:37.648Z,18.30
2022-11-30T20:08:05.330Z,18.33
2022-11-30T20:10:32.475Z,17.77
2022-11-30T20:12:59.601Z,18.35
2022-11-30T20:15:26.714Z,19.30
2022-11-30T20:17:53.856Z,17.60
2022-11-30T20:20:20.955Z,18.50
2022-11-30T20:22:48.195Z,18.33
2022-11-30T20:25:15.427Z,19.35
2022-11-30T20:27:42.550Z,18.23
2022-11-30T20:30:09.966Z,18.77
2022-11-30T20:32:40.416Z,17.05
2022-11-30T20:35:07.846Z,19.75
2022-11-30T20:37:35.153Z,18.65
2022-11-30T20:40:02.449Z,17.92
2022-11-30T20:42:29.591Z,18.65
2022-11-30T20:44:56.714Z,18.33
2022-11-30T20:47:23.873Z,18.88
2022-11-30T20:49:50.994Z,19.52
2022-11-30T20:52:18.183Z,18.77
2022-11-30T20:54:45.599Z,19.52
2022-11-30T20:57:12.911Z,18.83
2022-11-30T20:59:40.084Z,19.83
2022-11-30T21:02:07.274Z,19.95
2022-11-30T21:04:34.398Z,18.67
2022-11-30T21:07:01.539Z,18.90
2022-11-30T21:09:28.642Z,17.92
2022-11-30T21:11:55.755Z,19.60
2022-11-30T21:14:23.163Z,19.08
2022-11-30T21:16:50.334Z,19.33
2022-11-30T21:19:17.794Z,19.40
2022-11-30T21:21:44.976Z,20.38
2022-11-30T21:24:12.297Z,19.73
2022-11-30T21:26:40.674Z,19.35
2022-11-30T21:29:10.603Z,20.52
2022-11-30T21:31:37.869Z,20.15
2022-11-30T21:34:05.138Z,21.20
2022-11-30T21:36:32.463Z,21.55
2022-11-30T21:39:05.579Z,21.08
2022-11-30T21:41:33.804Z,18.17
2022-11-30T21:44:00.911Z,20.67
2022-11-30T21:46:28.197Z,19.52
2022-11-30T21:48:55.388Z,20.33
2022-11-30T21:51:26.673Z,19.42
2022-11-30T21:53:54.854Z,20.13
2022-11-30T21:56:26.873Z,21.45
2022-11-30T21:58:54.119Z,19.73
2022-11-30T22:01:26.070Z,21.08
2022-11-30T22:03:56.284Z,21.05
2022-11-30T22:06:24.566Z,20.50
2022-11-30T22:08:51.998Z,19.60
2022-11-30T22:11:20.954Z,21.02
2022-11-30T22:13:52.334Z,21.73
2022-11-30T22:16:20.043Z,21.38
2022-11-30T22:18:48.129Z,21.15
2022-11-30T22:21:16.458Z,20.15
2022-11-30T22:23:45.144Z,20.48
2022-11-30T22:26:13.835Z,20.60
2022-11-30T22:28:42.258Z,20.42
2022-11-30T22:31:10.701Z,21.10
2022-11-30T22:33:38.627Z,20.92
2022-11-30T22:36:06.246Z,20.15
2022-11-30T22:38:33.409Z,19.60
2022-11-30T22:41:08.075Z,20.92
2022-11-30T22:43:35.436Z,21.35
2022-11-30T22:46:03.570Z,21.05
2022-11-30T22:48:31.315Z,20.33
2022-11-30T22:51:02.106Z,20.60
2022-11-30T22:53:29.294Z,20.15
2022-11-30T22:56:00.934Z,21.02
2022-11-30T22:58:28.090Z,21.75
2022-11-30T23:00:55.256Z,21.75
2022-11-30T23:03:25.124Z,21.67
2022-11-30T23:05:52.397Z,21.30
2022-11-30T23:08:19.680Z,20.75
2022-11-30T23:10:46.851Z,20.55
2022-11-30T23:13:13.981Z,19.85
2022-11-30T23:15:41.462Z,21.92
2022-11-30T23:18:08.634Z,21.17
2022-11-30T23:20:36.283Z,20.27
2022-11-30T23:23:03.432Z,21.67
2022-11-30T23:25:30.648Z,21.02
2022-11-30T23:27:57.809Z,22.90
2022-11-30T23:30:24.967Z,23.27
2022-11-30T23:32:56.317Z,21.63
2022-11-30T23:35:24.226Z,21.85
2022-11-30T23:37:52.527Z,22.58
2022-11-30T23:40:20.157Z,23.95
2022-11-30T23:42:47.292Z,22.92
2022-11-30T23:45:14.481Z,24.25
2022-11-30T23:47:41.613Z,22.95
2022-11-30T23:50:09.176Z,22.88
2022-11-30T23:52:36.288Z,23.40
2022-11-30T23:55:03.475Z,23.48
2022-11-30T23:57:30.598Z,24.60
2022-11-30T23:59:57.711Z,23.98
